sensor_id;sensor_type;location;lat;lon;timestamp;P1;durP1;ratioP1;P2;durP2;ratioP2
84017;SDS011;74097;51.992;5.890;2023-11-18T00:00:43;10.70;;;7.10;;
84017;SDS011;74097;51.992;5.890;2023-11-18T00:03:09;10.25;;;6.50;;
84017;SDS011;74097;51.992;5.890;2023-11-18T00:05:34;12.23;;;7.57;;
84017;SDS011;74097;51.992;5.890;2023-11-18T00:08:01;10.75;;;7.07;;
84017;SDS011;74097;51.992;5.890;2023-11-18T00:10:27;11.73;;;7.40;;
84017;SDS011;74097;51.992;5.890;2023-11-18T00:12:53;14.35;;;7.13;;
84017;SDS011;74097;51.992;5.890;2023-11-18T00:15:18;12.23;;;7.25;;
84017;SDS011;74097;51.992;5.890;2023-11-18T00:17:44;11.55;;;7.03;;
84017;SDS011;74097;51.992;5.890;2023-11-18T00:20:10;12.60;;;7.57;;
84017;SDS011;74097;51.992;5.890;2023-11-18T00:22:36;11.57;;;7.00;;
84017;SDS011;74097;51.992;5.890;2023-11-18T00:25:03;11.50;;;7.00;;
84017;SDS011;74097;51.992;5.890;2023-11-18T00:27:29;9.77;;;6.88;;
84017;SDS011;74097;51.992;5.890;2023-11-18T00:29:55;9.00;;;6.50;;
84017;SDS011;74097;51.992;5.890;2023-11-18T00:32:21;10.90;;;7.13;;
84017;SDS011;74097;51.992;5.890;2023-11-18T00:34:46;10.60;;;6.63;;
84017;SDS011;74097;51.992;5.890;2023-11-18T00:37:12;11.90;;;6.82;;
84017;SDS011;74097;51.992;5.890;2023-11-18T00:39:38;10.88;;;7.05;;
84017;SDS011;74097;51.992;5.890;2023-11-18T00:42:05;10.80;;;7.13;;
84017;SDS011;74097;51.992;5.890;2023-11-18T00:44:31;11.88;;;7.22;;
84017;SDS011;74097;51.992;5.890;2023-11-18T00:46:56;9.95;;;6.55;;
84017;SDS011;74097;51.992;5.890;2023-11-18T00:49:22;8.98;;;6.18;;
84017;SDS011;74097;51.992;5.890;2023-11-18T00:51:48;10.50;;;7.10;;
84017;SDS011;74097;51.992;5.890;2023-11-18T00:54:14;10.38;;;7.20;;
84017;SDS011;74097;51.992;5.890;2023-11-18T00:56:39;11.23;;;6.90;;
84017;SDS011;74097;51.992;5.890;2023-11-18T00:59:06;9.55;;;6.55;;
84017;SDS011;74097;51.992;5.890;2023-11-18T01:01:32;10.20;;;6.60;;
84017;SDS011;74097;51.992;5.890;2023-11-18T01:03:58;9.63;;;6.55;;
84017;SDS011;74097;51.992;5.890;2023-11-18T01:06:23;8.60;;;6.25;;
84017;SDS011;74097;51.992;5.890;2023-11-18T01:08:49;9.15;;;6.50;;
84017;SDS011;74097;51.992;5.890;2023-11-18T01:11:15;10.20;;;6.82;;
84017;SDS011;74097;51.992;5.890;2023-11-18T01:13:41;11.05;;;6.72;;
84017;SDS011;74097;51.992;5.890;2023-11-18T01:16:08;11.23;;;6.43;;
84017;SDS011;74097;51.992;5.890;2023-11-18T01:18:34;10.70;;;6.57;;
84017;SDS011;74097;51.992;5.890;2023-11-18T01:21:00;10.00;;;5.97;;
84017;SDS011;74097;51.992;5.890;2023-11-18T01:23:26;9.07;;;5.75;;
84017;SDS011;74097;51.992;5.890;2023-11-18T01:25:51;9.23;;;5.82;;
84017;SDS011;74097;51.992;5.890;2023-11-18T01:28:17;9.52;;;6.20;;
84017;SDS011;74097;51.992;5.890;2023-11-18T01:30:43;9.55;;;6.05;;
84017;SDS011;74097;51.992;5.890;2023-11-18T01:33:10;9.80;;;6.65;;
84017;SDS011;74097;51.992;5.890;2023-11-18T01:35:35;11.52;;;6.78;;
84017;SDS011;74097;51.992;5.890;2023-11-18T01:38:01;8.68;;;6.03;;
84017;SDS011;74097;51.992;5.890;2023-11-18T01:40:27;10.07;;;6.13;;
84017;SDS011;74097;51.992;5.890;2023-11-18T01:42:54;9.35;;;6.30;;
84017;SDS011;74097;51.992;5.890;2023-11-18T01:45:19;8.68;;;5.68;;
84017;SDS011;74097;51.992;5.890;2023-11-18T01:47:45;8.55;;;5.68;;
84017;SDS011;74097;51.992;5.890;2023-11-18T01:50:13;9.43;;;5.90;;
84017;SDS011;74097;51.992;5.890;2023-11-18T01:52:40;8.70;;;5.90;;
84017;SDS011;74097;51.992;5.890;2023-11-18T01:55:06;8.95;;;6.18;;
84017;SDS011;74097;51.992;5.890;2023-11-18T01:57:32;9.00;;;6.15;;
84017;SDS011;74097;51.992;5.890;2023-11-18T01:59:59;9.52;;;6.13;;
84017;SDS011;74097;51.992;5.890;2023-11-18T02:02:26;8.77;;;5.88;;
84017;SDS011;74097;51.992;5.890;2023-11-18T02:04:51;9.63;;;5.93;;
84017;SDS011;74097;51.992;5.890;2023-11-18T02:07:18;8.10;;;5.40;;
84017;SDS011;74097;51.992;5.890;2023-11-18T02:09:44;8.32;;;5.95;;
84017;SDS011;74097;51.992;5.890;2023-11-18T02:12:16;8.55;;;5.80;;
84017;SDS011;74097;51.992;5.890;2023-11-18T02:14:46;8.73;;;5.30;;
84017;SDS011;74097;51.992;5.890;2023-11-18T02:17:16;7.93;;;5.65;;
84017;SDS011;74097;51.992;5.890;2023-11-18T02:19:44;7.97;;;5.25;;
84017;SDS011;74097;51.992;5.890;2023-11-18T02:22:10;9.55;;;6.00;;
84017;SDS011;74097;51.992;5.890;2023-11-18T02:24:38;9.25;;;5.50;;
84017;SDS011;74097;51.992;5.890;2023-11-18T02:27:05;8.45;;;5.90;;
84017;SDS011;74097;51.992;5.890;2023-11-18T02:29:32;7.65;;;5.63;;
84017;SDS011;74097;51.992;5.890;2023-11-18T02:32:01;8.70;;;5.72;;
84017;SDS011;74097;51.992;5.890;2023-11-18T02:34:32;8.77;;;6.07;;
84017;SDS011;74097;51.992;5.890;2023-11-18T02:36:59;8.55;;;5.10;;
84017;SDS011;74097;51.992;5.890;2023-11-18T02:39:29;8.00;;;5.38;;
84017;SDS011;74097;51.992;5.890;2023-11-18T02:41:59;9.85;;;5.93;;
84017;SDS011;74097;51.992;5.890;2023-11-18T02:44:28;7.25;;;5.20;;
84017;SDS011;74097;51.992;5.890;2023-11-18T02:46:55;10.95;;;6.07;;
84017;SDS011;74097;51.992;5.890;2023-11-18T02:49:21;8.20;;;4.95;;
84017;SDS011;74097;51.992;5.890;2023-11-18T02:51:47;8.45;;;5.25;;
84017;SDS011;74097;51.992;5.890;2023-11-18T02:54:14;8.07;;;5.50;;
84017;SDS011;74097;51.992;5.890;2023-11-18T02:56:39;10.07;;;5.80;;
84017;SDS011;74097;51.992;5.890;2023-11-18T02:59:05;8.48;;;5.40;;
84017;SDS011;74097;51.992;5.890;2023-11-18T03:01:32;8.68;;;5.30;;
84017;SDS011;74097;51.992;5.890;2023-11-18T03:03:58;9.77;;;6.40;;
84017;SDS011;74097;51.992;5.890;2023-11-18T03:06:24;7.75;;;5.40;;
84017;SDS011;74097;51.992;5.890;2023-11-18T03:08:49;8.48;;;5.38;;
84017;SDS011;74097;51.992;5.890;2023-11-18T03:11:15;8.77;;;5.35;;
84017;SDS011;74097;51.992;5.890;2023-11-18T03:13:41;7.60;;;5.03;;
84017;SDS011;74097;51.992;5.890;2023-11-18T03:16:07;9.05;;;6.40;;
84017;SDS011;74097;51.992;5.890;2023-11-18T03:18:34;8.75;;;5.70;;
84017;SDS011;74097;51.992;5.890;2023-11-18T03:21:00;9.82;;;5.80;;
84017;SDS011;74097;51.992;5.890;2023-11-18T03:23:25;9.75;;;5.90;;
84017;SDS011;74097;51.992;5.890;2023-11-18T03:25:51;7.97;;;5.50;;
84017;SDS011;74097;51.992;5.890;2023-11-18T03:28:17;10.45;;;6.30;;
84017;SDS011;74097;51.992;5.890;2023-11-18T03:30:42;9.48;;;5.80;;
84017;SDS011;74097;51.992;5.890;2023-11-18T03:33:08;9.57;;;5.63;;
84017;SDS011;74097;51.992;5.890;2023-11-18T03:35:35;9.75;;;5.93;;
84017;SDS011;74097;51.992;5.890;2023-11-18T03:38:01;8.73;;;5.57;;
84017;SDS011;74097;51.992;5.890;2023-11-18T03:40:27;8.80;;;6.03;;
84017;SDS011;74097;51.992;5.890;2023-11-18T03:42:52;9.25;;;5.70;;
84017;SDS011;74097;51.992;5.890;2023-11-18T03:45:18;9.63;;;6.30;;
84017;SDS011;74097;51.992;5.890;2023-11-18T03:47:44;8.35;;;6.07;;
84017;SDS011;74097;51.992;5.890;2023-11-18T03:50:10;9.43;;;5.68;;
84017;SDS011;74097;51.992;5.890;2023-11-18T03:52:37;9.40;;;6.18;;
84017;SDS011;74097;51.992;5.890;2023-11-18T03:55:02;8.93;;;6.03;;
84017;SDS011;74097;51.992;5.890;2023-11-18T03:57:28;9.48;;;5.80;;
84017;SDS011;74097;51.992;5.890;2023-11-18T03:59:54;9.48;;;6.47;;
84017;SDS011;74097;51.992;5.890;2023-11-18T04:02:19;9.70;;;6.45;;
84017;SDS011;74097;51.992;5.890;2023-11-18T04:04:45;9.25;;;6.07;;
84017;SDS011;74097;51.992;5.890;2023-11-18T04:07:11;8.93;;;6.07;;
84017;SDS011;74097;51.992;5.890;2023-11-18T04:09:38;8.95;;;5.95;;
84017;SDS011;74097;51.992;5.890;2023-11-18T04:12:04;10.38;;;6.85;;
84017;SDS011;74097;51.992;5.890;2023-11-18T04:14:30;9.68;;;5.90;;
84017;SDS011;74097;51.992;5.890;2023-11-18T04:16:55;9.05;;;6.28;;
84017;SDS011;74097;51.992;5.890;2023-11-18T04:19:21;9.73;;;6.43;;
84017;SDS011;74097;51.992;5.890;2023-11-18T04:21:47;10.05;;;6.47;;
84017;SDS011;74097;51.992;5.890;2023-11-18T04:24:12;9.85;;;6.32;;
84017;SDS011;74097;51.992;5.890;2023-11-18T04:26:40;8.70;;;6.18;;
84017;SDS011;74097;51.992;5.890;2023-11-18T04:29:05;8.73;;;6.00;;
84017;SDS011;74097;51.992;5.890;2023-11-18T04:31:31;10.88;;;6.18;;
84017;SDS011;74097;51.992;5.890;2023-11-18T04:33:57;8.27;;;5.72;;
84017;SDS011;74097;51.992;5.890;2023-11-18T04:36:23;10.48;;;7.07;;
84017;SDS011;74097;51.992;5.890;2023-11-18T04:38:48;9.27;;;6.40;;
84017;SDS011;74097;51.992;5.890;2023-11-18T04:41:14;11.15;;;7.18;;
84017;SDS011;74097;51.992;5.890;2023-11-18T04:43:41;9.45;;;6.22;;
84017;SDS011;74097;51.992;5.890;2023-11-18T04:46:07;9.45;;;5.80;;
84017;SDS011;74097;51.992;5.890;2023-11-18T04:48:33;10.65;;;6.53;;
84017;SDS011;74097;51.992;5.890;2023-11-18T04:50:59;9.52;;;6.47;;
84017;SDS011;74097;51.992;5.890;2023-11-18T04:53:25;11.05;;;7.18;;
84017;SDS011;74097;51.992;5.890;2023-11-18T04:55:50;9.88;;;5.93;;
84017;SDS011;74097;51.992;5.890;2023-11-18T04:58:16;10.52;;;7.07;;
84017;SDS011;74097;51.992;5.890;2023-11-18T05:00:43;11.32;;;6.47;;
84017;SDS011;74097;51.992;5.890;2023-11-18T05:03:09;10.93;;;7.45;;
84017;SDS011;74097;51.992;5.890;2023-11-18T05:05:35;9.02;;;5.90;;
84017;SDS011;74097;51.992;5.890;2023-11-18T05:08:00;10.85;;;6.95;;
84017;SDS011;74097;51.992;5.890;2023-11-18T05:10:26;8.60;;;6.07;;
84017;SDS011;74097;51.992;5.890;2023-11-18T05:12:52;9.40;;;6.38;;
84017;SDS011;74097;51.992;5.890;2023-11-18T05:15:18;11.13;;;6.97;;
84017;SDS011;74097;51.992;5.890;2023-11-18T05:17:45;12.80;;;7.88;;
84017;SDS011;74097;51.992;5.890;2023-11-18T05:20:10;10.15;;;7.25;;
84017;SDS011;74097;51.992;5.890;2023-11-18T05:22:36;9.98;;;6.28;;
84017;SDS011;74097;51.992;5.890;2023-11-18T05:25:02;11.10;;;6.50;;
84017;SDS011;74097;51.992;5.890;2023-11-18T05:27:28;10.30;;;6.72;;
84017;SDS011;74097;51.992;5.890;2023-11-18T05:29:54;9.48;;;6.97;;
84017;SDS011;74097;51.992;5.890;2023-11-18T05:32:19;10.90;;;6.93;;
84017;SDS011;74097;51.992;5.890;2023-11-18T05:34:46;9.63;;;6.78;;
84017;SDS011;74097;51.992;5.890;2023-11-18T05:37:12;11.35;;;6.88;;
84017;SDS011;74097;51.992;5.890;2023-11-18T05:39:38;10.95;;;6.78;;
84017;SDS011;74097;51.992;5.890;2023-11-18T05:42:03;9.27;;;6.90;;
84017;SDS011;74097;51.992;5.890;2023-11-18T05:44:29;11.02;;;6.90;;
84017;SDS011;74097;51.992;5.890;2023-11-18T05:46:55;12.85;;;8.20;;
84017;SDS011;74097;51.992;5.890;2023-11-18T05:49:21;10.80;;;7.20;;
84017;SDS011;74097;51.992;5.890;2023-11-18T05:51:48;10.60;;;6.82;;
84017;SDS011;74097;51.992;5.890;2023-11-18T05:54:14;9.57;;;6.72;;
84017;SDS011;74097;51.992;5.890;2023-11-18T05:56:39;10.27;;;7.10;;
84017;SDS011;74097;51.992;5.890;2023-11-18T05:59:05;8.60;;;6.13;;
84017;SDS011;74097;51.992;5.890;2023-11-18T06:01:31;9.43;;;6.68;;
84017;SDS011;74097;51.992;5.890;2023-11-18T06:03:56;11.95;;;7.32;;
84017;SDS011;74097;51.992;5.890;2023-11-18T06:06:22;10.38;;;6.88;;
84017;SDS011;74097;51.992;5.890;2023-11-18T06:08:49;9.90;;;6.22;;
84017;SDS011;74097;51.992;5.890;2023-11-18T06:11:16;9.45;;;6.40;;
84017;SDS011;74097;51.992;5.890;2023-11-18T06:13:42;9.75;;;6.82;;
84017;SDS011;74097;51.992;5.890;2023-11-18T06:16:09;9.73;;;6.25;;
84017;SDS011;74097;51.992;5.890;2023-11-18T06:18:37;9.77;;;6.85;;
84017;SDS011;74097;51.992;5.890;2023-11-18T06:21:03;10.18;;;6.47;;
84017;SDS011;74097;51.992;5.890;2023-11-18T06:23:29;8.95;;;6.82;;
84017;SDS011;74097;51.992;5.890;2023-11-18T06:25:56;10.75;;;7.28;;
84017;SDS011;74097;51.992;5.890;2023-11-18T06:28:21;9.90;;;6.65;;
84017;SDS011;74097;51.992;5.890;2023-11-18T06:30:47;9.43;;;7.00;;
84017;SDS011;74097;51.992;5.890;2023-11-18T06:33:13;11.55;;;6.38;;
84017;SDS011;74097;51.992;5.890;2023-11-18T06:35:38;9.40;;;6.20;;
84017;SDS011;74097;51.992;5.890;2023-11-18T06:38:04;11.30;;;7.55;;
84017;SDS011;74097;51.992;5.890;2023-11-18T06:40:30;11.15;;;7.20;;
84017;SDS011;74097;51.992;5.890;2023-11-18T06:42:57;9.82;;;6.50;;
84017;SDS011;74097;51.992;5.890;2023-11-18T06:45:22;11.60;;;6.60;;
84017;SDS011;74097;51.992;5.890;2023-11-18T06:47:48;9.60;;;6.40;;
84017;SDS011;74097;51.992;5.890;2023-11-18T06:50:14;9.73;;;6.88;;
84017;SDS011;74097;51.992;5.890;2023-11-18T06:52:39;11.10;;;7.43;;
84017;SDS011;74097;51.992;5.890;2023-11-18T06:55:05;10.20;;;7.32;;
84017;SDS011;74097;51.992;5.890;2023-11-18T06:57:31;9.20;;;5.63;;
84017;SDS011;74097;51.992;5.890;2023-11-18T06:59:58;11.00;;;6.47;;
84017;SDS011;74097;51.992;5.890;2023-11-18T07:02:24;12.23;;;6.22;;
84017;SDS011;74097;51.992;5.890;2023-11-18T07:04:49;9.02;;;5.53;;
84017;SDS011;74097;51.992;5.890;2023-11-18T07:07:15;9.82;;;6.10;;
84017;SDS011;74097;51.992;5.890;2023-11-18T07:09:41;9.18;;;5.53;;
84017;SDS011;74097;51.992;5.890;2023-11-18T07:12:07;7.88;;;5.93;;
84017;SDS011;74097;51.992;5.890;2023-11-18T07:14:32;9.95;;;5.97;;
84017;SDS011;74097;51.992;5.890;2023-11-18T07:16:59;9.15;;;5.30;;
84017;SDS011;74097;51.992;5.890;2023-11-18T07:19:25;10.32;;;5.97;;
84017;SDS011;74097;51.992;5.890;2023-11-18T07:21:51;8.55;;;5.53;;
84017;SDS011;74097;51.992;5.890;2023-11-18T07:24:16;8.95;;;5.35;;
84017;SDS011;74097;51.992;5.890;2023-11-18T07:26:42;12.25;;;6.97;;
84017;SDS011;74097;51.992;5.890;2023-11-18T07:29:08;10.15;;;6.88;;
84017;SDS011;74097;51.992;5.890;2023-11-18T07:31:33;9.10;;;6.05;;
84017;SDS011;74097;51.992;5.890;2023-11-18T07:34:01;8.73;;;5.88;;
84017;SDS011;74097;51.992;5.890;2023-11-18T07:38:02;8.45;;;4.90;;
84017;SDS011;74097;51.992;5.890;2023-11-18T07:40:28;8.43;;;5.15;;
84017;SDS011;74097;51.992;5.890;2023-11-18T07:42:54;14.35;;;5.68;;
84017;SDS011;74097;51.992;5.890;2023-11-18T07:45:19;8.57;;;5.38;;
84017;SDS011;74097;51.992;5.890;2023-11-18T07:47:45;9.82;;;5.18;;
84017;SDS011;74097;51.992;5.890;2023-11-18T07:50:11;8.00;;;5.30;;
84017;SDS011;74097;51.992;5.890;2023-11-18T07:52:36;7.25;;;4.90;;
84017;SDS011;74097;51.992;5.890;2023-11-18T07:55:04;7.35;;;4.65;;
84017;SDS011;74097;51.992;5.890;2023-11-18T07:57:30;8.93;;;5.10;;
84017;SDS011;74097;51.992;5.890;2023-11-18T07:59:56;10.55;;;5.10;;
84017;SDS011;74097;51.992;5.890;2023-11-18T08:02:22;7.63;;;4.80;;
84017;SDS011;74097;51.992;5.890;2023-11-18T08:04:47;10.40;;;5.03;;
84017;SDS011;74097;51.992;5.890;2023-11-18T08:07:13;7.07;;;4.85;;
84017;SDS011;74097;51.992;5.890;2023-11-18T08:09:39;8.63;;;4.65;;
84017;SDS011;74097;51.992;5.890;2023-11-18T08:12:06;7.07;;;4.88;;
84017;SDS011;74097;51.992;5.890;2023-11-18T08:14:32;7.70;;;5.03;;
84017;SDS011;74097;51.992;5.890;2023-11-18T08:16:57;7.70;;;5.20;;
84017;SDS011;74097;51.992;5.890;2023-11-18T08:19:23;7.50;;;4.95;;
84017;SDS011;74097;51.992;5.890;2023-11-18T08:21:49;6.30;;;4.18;;
84017;SDS011;74097;51.992;5.890;2023-11-18T08:24:14;7.32;;;4.28;;
84017;SDS011;74097;51.992;5.890;2023-11-18T08:26:40;7.90;;;4.20;;
84017;SDS011;74097;51.992;5.890;2023-11-18T08:29:07;6.90;;;4.10;;
84017;SDS011;74097;51.992;5.890;2023-11-18T08:31:33;9.50;;;5.05;;
84017;SDS011;74097;51.992;5.890;2023-11-18T08:33:59;6.28;;;4.38;;
84017;SDS011;74097;51.992;5.890;2023-11-18T08:36:24;7.25;;;4.93;;
84017;SDS011;74097;51.992;5.890;2023-11-18T08:38:50;8.35;;;5.40;;
84017;SDS011;74097;51.992;5.890;2023-11-18T08:41:16;8.75;;;4.30;;
84017;SDS011;74097;51.992;5.890;2023-11-18T08:43:41;6.50;;;4.15;;
84017;SDS011;74097;51.992;5.890;2023-11-18T08:46:08;8.10;;;4.68;;
84017;SDS011;74097;51.992;5.890;2023-11-18T08:48:34;9.50;;;4.72;;
84017;SDS011;74097;51.992;5.890;2023-11-18T08:51:00;7.30;;;4.78;;
84017;SDS011;74097;51.992;5.890;2023-11-18T08:53:25;8.25;;;4.53;;
84017;SDS011;74097;51.992;5.890;2023-11-18T08:55:51;6.85;;;4.45;;
84017;SDS011;74097;51.992;5.890;2023-11-18T08:58:17;5.65;;;3.92;;
84017;SDS011;74097;51.992;5.890;2023-11-18T09:00:43;6.03;;;4.18;;
84017;SDS011;74097;51.992;5.890;2023-11-18T09:03:10;7.30;;;4.28;;
84017;SDS011;74097;51.992;5.890;2023-11-18T09:05:35;6.28;;;4.22;;
84017;SDS011;74097;51.992;5.890;2023-11-18T09:08:01;7.40;;;4.13;;
84017;SDS011;74097;51.992;5.890;2023-11-18T09:10:27;7.55;;;4.22;;
84017;SDS011;74097;51.992;5.890;2023-11-18T09:12:53;7.10;;;4.60;;
84017;SDS011;74097;51.992;5.890;2023-11-18T09:15:18;7.93;;;4.18;;
84017;SDS011;74097;51.992;5.890;2023-11-18T09:17:44;5.70;;;3.90;;
84017;SDS011;74097;51.992;5.890;2023-11-18T09:20:11;6.35;;;3.92;;
84017;SDS011;74097;51.992;5.890;2023-11-18T09:22:37;5.70;;;3.90;;
84017;SDS011;74097;51.992;5.890;2023-11-18T09:25:03;8.57;;;3.97;;
84017;SDS011;74097;51.992;5.890;2023-11-18T09:27:29;8.02;;;5.22;;
84017;SDS011;74097;51.992;5.890;2023-11-18T09:29:54;8.05;;;4.18;;
84017;SDS011;74097;51.992;5.890;2023-11-18T09:32:23;6.65;;;3.92;;
84017;SDS011;74097;51.992;5.890;2023-11-18T09:34:48;6.07;;;3.70;;
84017;SDS011;74097;51.992;5.890;2023-11-18T09:37:15;6.30;;;4.40;;
84017;SDS011;74097;51.992;5.890;2023-11-18T09:39:41;6.38;;;4.10;;
84017;SDS011;74097;51.992;5.890;2023-11-18T09:42:07;6.32;;;4.13;;
84017;SDS011;74097;51.992;5.890;2023-11-18T09:44:33;9.02;;;4.30;;
84017;SDS011;74097;51.992;5.890;2023-11-18T09:46:58;6.18;;;3.78;;
84017;SDS011;74097;51.992;5.890;2023-11-18T09:49:27;7.20;;;3.70;;
84017;SDS011;74097;51.992;5.890;2023-11-18T09:51:57;6.82;;;3.78;;
84017;SDS011;74097;51.992;5.890;2023-11-18T09:54:26;7.43;;;4.75;;
84017;SDS011;74097;51.992;5.890;2023-11-18T09:57:03;7.90;;;5.25;;
84017;SDS011;74097;51.992;5.890;2023-11-18T09:59:32;7.03;;;4.50;;
84017;SDS011;74097;51.992;5.890;2023-11-18T10:02:03;7.13;;;4.78;;
84017;SDS011;74097;51.992;5.890;2023-11-18T10:04:28;7.43;;;4.45;;
84017;SDS011;74097;51.992;5.890;2023-11-18T10:06:55;6.53;;;4.20;;
84017;SDS011;74097;51.992;5.890;2023-11-18T10:09:23;6.50;;;4.53;;
84017;SDS011;74097;51.992;5.890;2023-11-18T10:11:49;6.97;;;4.40;;
84017;SDS011;74097;51.992;5.890;2023-11-18T10:14:14;6.30;;;4.00;;
84017;SDS011;74097;51.992;5.890;2023-11-18T10:16:40;9.25;;;5.32;;
84017;SDS011;74097;51.992;5.890;2023-11-18T10:19:06;6.90;;;4.40;;
84017;SDS011;74097;51.992;5.890;2023-11-18T10:21:34;8.45;;;4.40;;
84017;SDS011;74097;51.992;5.890;2023-11-18T10:24:00;7.70;;;4.00;;
84017;SDS011;74097;51.992;5.890;2023-11-18T10:26:27;8.85;;;4.40;;
84017;SDS011;74097;51.992;5.890;2023-11-18T10:28:53;5.90;;;4.07;;
84017;SDS011;74097;51.992;5.890;2023-11-18T10:31:19;6.20;;;3.83;;
84017;SDS011;74097;51.992;5.890;2023-11-18T10:33:44;6.55;;;3.85;;
84017;SDS011;74097;51.992;5.890;2023-11-18T10:36:17;6.68;;;4.22;;
84017;SDS011;74097;51.992;5.890;2023-11-18T10:38:43;7.18;;;3.58;;
84017;SDS011;74097;51.992;5.890;2023-11-18T10:41:09;6.78;;;3.92;;
84017;SDS011;74097;51.992;5.890;2023-11-18T10:43:36;6.07;;;4.03;;
84017;SDS011;74097;51.992;5.890;2023-11-18T10:46:05;6.63;;;4.00;;
84017;SDS011;74097;51.992;5.890;2023-11-18T10:48:31;5.50;;;3.50;;
84017;SDS011;74097;51.992;5.890;2023-11-18T10:50:57;7.10;;;3.78;;
84017;SDS011;74097;51.992;5.890;2023-11-18T10:53:23;6.70;;;4.00;;
84017;SDS011;74097;51.992;5.890;2023-11-18T10:55:49;7.25;;;4.00;;
84017;SDS011;74097;51.992;5.890;2023-11-18T10:58:15;6.70;;;4.22;;
84017;SDS011;74097;51.992;5.890;2023-11-18T11:00:46;8.48;;;4.20;;
84017;SDS011;74097;51.992;5.890;2023-11-18T11:03:13;7.03;;;3.80;;
84017;SDS011;74097;51.992;5.890;2023-11-18T11:05:39;6.20;;;3.60;;
84017;SDS011;74097;51.992;5.890;2023-11-18T11:08:05;5.47;;;3.70;;
84017;SDS011;74097;51.992;5.890;2023-11-18T11:10:32;6.47;;;3.53;;
84017;SDS011;74097;51.992;5.890;2023-11-18T11:12:59;6.43;;;3.80;;
84017;SDS011;74097;51.992;5.890;2023-11-18T11:15:27;7.47;;;3.55;;
84017;SDS011;74097;51.992;5.890;2023-11-18T11:17:57;7.22;;;3.58;;
84017;SDS011;74097;51.992;5.890;2023-11-18T11:20:29;5.47;;;3.63;;
84017;SDS011;74097;51.992;5.890;2023-11-18T11:23:01;6.03;;;3.53;;
84017;SDS011;74097;51.992;5.890;2023-11-18T11:25:41;5.25;;;2.92;;
84017;SDS011;74097;51.992;5.890;2023-11-18T11:30:42;5.20;;;3.15;;
84017;SDS011;74097;51.992;5.890;2023-11-18T11:33:14;7.25;;;3.63;;
84017;SDS011;74097;51.992;5.890;2023-11-18T11:35:48;6.18;;;3.50;;
84017;SDS011;74097;51.992;5.890;2023-11-18T11:38:18;7.43;;;3.75;;
84017;SDS011;74097;51.992;5.890;2023-11-18T11:40:45;8.27;;;4.13;;
84017;SDS011;74097;51.992;5.890;2023-11-18T11:43:12;8.63;;;4.03;;
84017;SDS011;74097;51.992;5.890;2023-11-18T11:45:38;7.65;;;3.47;;
84017;SDS011;74097;51.992;5.890;2023-11-18T11:48:04;6.75;;;3.55;;
84017;SDS011;74097;51.992;5.890;2023-11-18T11:50:33;6.05;;;3.42;;
84017;SDS011;74097;51.992;5.890;2023-11-18T11:53:04;6.95;;;3.58;;
84017;SDS011;74097;51.992;5.890;2023-11-18T11:55:38;6.40;;;3.42;;
84017;SDS011;74097;51.992;5.890;2023-11-18T11:58:25;6.53;;;3.22;;
84017;SDS011;74097;51.992;5.890;2023-11-18T12:00:51;5.72;;;2.97;;
84017;SDS011;74097;51.992;5.890;2023-11-18T12:03:17;6.30;;;3.03;;
84017;SDS011;74097;51.992;5.890;2023-11-18T12:05:48;5.82;;;3.08;;
84017;SDS011;74097;51.992;5.890;2023-11-18T12:08:15;7.85;;;3.60;;
84017;SDS011;74097;51.992;5.890;2023-11-18T12:10:45;7.10;;;2.90;;
84017;SDS011;74097;51.992;5.890;2023-11-18T12:13:16;7.70;;;3.10;;
84017;SDS011;74097;51.992;5.890;2023-11-18T12:15:49;7.55;;;3.00;;
84017;SDS011;74097;51.992;5.890;2023-11-18T12:18:15;7.35;;;2.97;;
84017;SDS011;74097;51.992;5.890;2023-11-18T12:20:41;8.55;;;3.17;;
84017;SDS011;74097;51.992;5.890;2023-11-18T12:23:09;6.18;;;2.90;;
84017;SDS011;74097;51.992;5.890;2023-11-18T12:25:35;5.78;;;2.63;;
84017;SDS011;74097;51.992;5.890;2023-11-18T12:28:07;6.47;;;3.22;;
84017;SDS011;74097;51.992;5.890;2023-11-18T12:30:40;5.80;;;2.78;;
84017;SDS011;74097;51.992;5.890;2023-11-18T12:33:06;7.18;;;2.70;;
84017;SDS011;74097;51.992;5.890;2023-11-18T12:35:32;6.05;;;2.72;;
84017;SDS011;74097;51.992;5.890;2023-11-18T12:38:38;7.22;;;2.80;;
84017;SDS011;74097;51.992;5.890;2023-11-18T12:41:31;7.82;;;3.15;;
84017;SDS011;74097;51.992;5.890;2023-11-18T12:44:02;3.88;;;2.58;;
84017;SDS011;74097;51.992;5.890;2023-11-18T12:46:47;6.32;;;2.78;;
84017;SDS011;74097;51.992;5.890;2023-11-18T12:49:14;5.53;;;2.85;;
84017;SDS011;74097;51.992;5.890;2023-11-18T12:51:40;4.60;;;2.15;;
84017;SDS011;74097;51.992;5.890;2023-11-18T12:54:08;5.05;;;2.83;;
84017;SDS011;74097;51.992;5.890;2023-11-18T12:56:34;4.80;;;2.55;;
84017;SDS011;74097;51.992;5.890;2023-11-18T12:59:02;6.13;;;2.85;;
84017;SDS011;74097;51.992;5.890;2023-11-18T13:01:27;6.03;;;2.40;;
84017;SDS011;74097;51.992;5.890;2023-11-18T13:03:53;4.50;;;2.58;;
84017;SDS011;74097;51.992;5.890;2023-11-18T13:06:19;4.90;;;2.40;;
84017;SDS011;74097;51.992;5.890;2023-11-18T13:08:44;6.85;;;3.05;;
84017;SDS011;74097;51.992;5.890;2023-11-18T13:11:11;4.78;;;2.55;;
84017;SDS011;74097;51.992;5.890;2023-11-18T13:13:37;6.20;;;2.40;;
84017;SDS011;74097;51.992;5.890;2023-11-18T13:16:03;4.28;;;2.38;;
84017;SDS011;74097;51.992;5.890;2023-11-18T13:18:40;5.63;;;2.95;;
84017;SDS011;74097;51.992;5.890;2023-11-18T13:21:07;4.22;;;2.45;;
84017;SDS011;74097;51.992;5.890;2023-11-18T13:23:32;5.38;;;2.40;;
84017;SDS011;74097;51.992;5.890;2023-11-18T13:25:58;4.35;;;2.35;;
84017;SDS011;74097;51.992;5.890;2023-11-18T13:28:25;3.70;;;2.10;;
84017;SDS011;74097;51.992;5.890;2023-11-18T13:30:51;4.10;;;2.17;;
84017;SDS011;74097;51.992;5.890;2023-11-18T13:33:17;4.45;;;2.53;;
84017;SDS011;74097;51.992;5.890;2023-11-18T13:35:43;3.65;;;2.13;;
84017;SDS011;74097;51.992;5.890;2023-11-18T13:38:11;5.40;;;2.67;;
84017;SDS011;74097;51.992;5.890;2023-11-18T13:40:43;4.65;;;2.40;;
84017;SDS011;74097;51.992;5.890;2023-11-18T13:43:09;3.92;;;2.05;;
84017;SDS011;74097;51.992;5.890;2023-11-18T13:45:36;4.68;;;2.13;;
84017;SDS011;74097;51.992;5.890;2023-11-18T13:48:02;3.58;;;2.05;;
84017;SDS011;74097;51.992;5.890;2023-11-18T13:50:28;4.85;;;2.20;;
84017;SDS011;74097;51.992;5.890;2023-11-18T13:52:53;3.78;;;1.73;;
84017;SDS011;74097;51.992;5.890;2023-11-18T13:55:19;5.78;;;2.25;;
84017;SDS011;74097;51.992;5.890;2023-11-18T13:57:45;5.25;;;2.05;;
84017;SDS011;74097;51.992;5.890;2023-11-18T14:00:12;4.20;;;2.03;;
84017;SDS011;74097;51.992;5.890;2023-11-18T14:02:40;4.00;;;2.00;;
84017;SDS011;74097;51.992;5.890;2023-11-18T14:05:06;4.25;;;1.90;;
84017;SDS011;74097;51.992;5.890;2023-11-18T14:07:40;5.78;;;2.03;;
84017;SDS011;74097;51.992;5.890;2023-11-18T14:10:06;4.78;;;1.95;;
84017;SDS011;74097;51.992;5.890;2023-11-18T14:12:32;5.40;;;1.92;;
84017;SDS011;74097;51.992;5.890;2023-11-18T14:14:58;3.33;;;1.80;;
84017;SDS011;74097;51.992;5.890;2023-11-18T14:17:24;3.50;;;1.88;;
84017;SDS011;74097;51.992;5.890;2023-11-18T14:19:51;3.95;;;2.00;;
84017;SDS011;74097;51.992;5.890;2023-11-18T14:22:16;3.85;;;1.85;;
84017;SDS011;74097;51.992;5.890;2023-11-18T14:24:42;3.08;;;1.70;;
84017;SDS011;74097;51.992;5.890;2023-11-18T14:27:08;3.88;;;2.00;;
84017;SDS011;74097;51.992;5.890;2023-11-18T14:29:33;3.45;;;1.65;;
84017;SDS011;74097;51.992;5.890;2023-11-18T14:31:59;3.78;;;1.77;;
84017;SDS011;74097;51.992;5.890;2023-11-18T14:34:25;4.45;;;1.98;;
84017;SDS011;74097;51.992;5.890;2023-11-18T14:36:52;3.78;;;1.70;;
84017;SDS011;74097;51.992;5.890;2023-11-18T14:39:18;4.75;;;2.00;;
84017;SDS011;74097;51.992;5.890;2023-11-18T14:41:43;2.80;;;1.70;;
84017;SDS011;74097;51.992;5.890;2023-11-18T14:44:09;4.70;;;1.92;;
84017;SDS011;74097;51.992;5.890;2023-11-18T14:46:35;3.47;;;1.50;;